Hovedside
METAR-TAF:

METAR-TAF

Lufthavner :

Harbin Taiping internasjonale lufthavn

Harbin, Kina

breddegrad: 45-45N, lengdegrad: 126-46E, høyde over havet: 143 m

Gjeldene værobservasjon

Denne rapporten ble laget for 15 minutter siden, klokken 04:00 UTC
Vind 4 kt fra Vest-sørvest, skiftende mellom Sør-sørøst og Nordvest
Temperatur 12°C
Luftfuktighet 40%
Trykk 1014 hPa
Sikt 10 km eller mer
ingen skyer under 1500 m og ingen bygeskyer

METAR: ZYHB 240400Z 25002MPS 160V310 CAVOK 12/M01 Q1014 NOSIG

Tid: 12:15 (04:15 UTC)

Varsel

Denne rapporten ble laget for 9 timer og 7 minutter siden, klokken 19:08 UTC
Varsel gyldig fra 24. klokken 00 UTC til 24. klokken 24 UTC
Vind 8 kt fra Vest
Sikt: 6000 m
Spredte skyer i en høyde av 3300 ft

TAF: ZYHB 231908Z 2400/2424 26004MPS 6000 SCT033 TX12/2406Z TNM01/21Z

Værobservasjoner og værvarsel for over 4000 flyplasser (METAR- og TAF-rapporter).

Tilgjengelige stasjoner er representert av de røde og gule prikkene på kartet.

Hold musepekeren over prikken for å se navnet på stasjonen.

Klikk så for å se værobservasjoner og -varsler.

For å forandre kartet kan du klikke på den grønne knappen med svart kryss for å zoome inn, på den grønne knappen med strek for å zoome ut, eller på de grønne pilene for å se tilstøtende kart.


METAR-TAF: